Time;durP1;ratioP1;P1;durP2;ratioP2;P2;SDS_P1;SDS_P2;PMS_P1;PMS_P2;Temp;Humidity;BMP_temperature;BMP_pressure;BME280_temperature;BME280_humidity;BME280_pressure;Samples;Min_cycle;Max_cycle;Signal;HPM_P1;HPM_P2
2022/10/13 00:00:44;;;;;;;21.50;11.45;;;9.80;99.90;;;;;;6239799;23;20102;-84
2022/10/13 00:03:09;;;;;;;19.25;10.00;;;9.90;99.90;;;;;;6241476;22;20013;-84
2022/10/13 00:05:43;;;;;;;22.05;10.90;;;9.90;99.90;;;;;;6241810;23;20044;-85
2022/10/13 00:08:10;;;;;;;24.80;11.48;;;9.90;99.90;;;;;;6239928;23;20016;-84
2022/10/13 00:10:38;;;;;;;26.75;10.38;;;10.00;99.90;;;;;;6241622;22;20039;-85
2022/10/13 00:13:05;;;;;;;20.95;11.00;;;9.90;99.90;;;;;;6241190;22;20083;-84
2022/10/13 00:15:30;;;;;;;22.42;10.95;;;9.90;99.90;;;;;;6241633;22;20058;-85
2022/10/13 00:17:56;;;;;;;22.00;11.13;;;9.90;99.90;;;;;;6241676;22;20044;-84
2022/10/13 00:20:22;;;;;;;21.90;10.98;;;9.90;99.90;;;;;;6239914;23;20033;-84
2022/10/13 00:22:47;;;;;;;22.83;12.00;;;9.90;99.90;;;;;;6239201;23;20517;-85
2022/10/13 00:25:13;;;;;;;25.35;12.25;;;9.90;99.90;;;;;;6240747;23;20077;-84
2022/10/13 00:27:38;;;;;;;23.85;11.05;;;9.90;99.90;;;;;;6238979;23;20393;-84
2022/10/13 00:30:05;;;;;;;21.85;11.52;;;9.90;99.90;;;;;;6241352;23;20015;-83
2022/10/13 00:32:30;;;;;;;20.08;11.02;;;9.90;99.90;;;;;;6241555;22;20058;-85
2022/10/13 00:34:56;;;;;;;22.08;11.25;;;9.90;99.90;;;;;;6241848;23;20009;-84
2022/10/13 00:37:22;;;;;;;22.65;12.40;;;9.90;99.90;;;;;;6241552;22;20193;-84
2022/10/13 00:39:48;;;;;;;25.58;12.57;;;9.90;99.90;;;;;;6240429;22;20509;-85
2022/10/13 00:42:14;;;;;;;22.67;13.07;;;9.90;99.90;;;;;;6241572;23;20043;-84
2022/10/13 00:44:59;;;;;;;24.70;12.23;;;9.90;99.90;;;;;;6239383;23;20022;-84
2022/10/13 00:47:36;;;;;;;25.08;12.48;;;9.80;99.90;;;;;;6241104;22;20023;-84
2022/10/13 00:50:03;;;;;;;23.10;11.68;;;9.90;99.90;;;;;;6241172;22;20378;-84
2022/10/13 00:52:30;;;;;;;22.08;12.45;;;9.80;99.90;;;;;;6241459;22;20035;-84
2022/10/13 00:54:56;;;;;;;23.77;11.95;;;9.80;99.90;;;;;;6240489;22;20062;-84
2022/10/13 00:57:22;;;;;;;23.92;12.68;;;9.80;99.90;;;;;;6241330;22;20016;-85
2022/10/13 00:59:48;;;;;;;22.90;12.50;;;9.80;99.90;;;;;;6241538;22;20534;-84
2022/10/13 01:02:14;;;;;;;26.23;12.90;;;9.80;99.90;;;;;;6240953;22;20012;-84
2022/10/13 01:04:45;;;;;;;21.27;12.48;;;9.80;99.90;;;;;;6241425;22;20008;-84
2022/10/13 01:07:17;;;;;;;22.95;12.80;;;9.80;99.90;;;;;;6241208;22;20019;-85
2022/10/13 01:09:44;;;;;;;22.75;12.52;;;9.80;99.90;;;;;;6240820;22;20016;-84
2022/10/13 01:12:34;;;;;;;24.25;12.68;;;9.80;99.90;;;;;;6241271;22;20119;-85
2022/10/13 01:15:20;;;;;;;20.98;11.82;;;9.80;99.90;;;;;;6241269;23;20009;-84
2022/10/13 01:18:04;;;;;;;25.65;12.57;;;9.80;99.90;;;;;;6241315;22;20046;-84
2022/10/13 01:21:05;;;;;;;21.63;12.27;;;9.80;99.90;;;;;;6241469;22;20012;-84
2022/10/13 01:23:50;;;;;;;25.20;12.60;;;9.80;99.90;;;;;;6239919;22;20020;-85
2022/10/13 01:26:38;;;;;;;24.60;13.32;;;9.80;99.90;;;;;;6239316;23;20020;-84
2022/10/13 01:29:12;;;;;;;22.13;12.95;;;9.80;99.90;;;;;;6241331;22;20307;-84
2022/10/13 01:31:52;;;;;;;26.85;13.50;;;9.80;99.90;;;;;;6239783;23;20091;-85
2022/10/13 01:34:24;;;;;;;23.77;12.82;;;9.80;99.90;;;;;;6239369;23;20272;-85
2022/10/13 01:37:01;;;;;;;24.38;12.95;;;9.80;99.90;;;;;;6241154;23;20020;-84
2022/10/13 01:39:53;;;;;;;22.30;12.18;;;9.80;99.90;;;;;;6240726;22;20020;-84
2022/10/13 01:42:23;;;;;;;22.02;13.60;;;9.80;99.90;;;;;;6241001;22;20433;-84
2022/10/13 01:44:53;;;;;;;23.23;12.82;;;9.80;99.90;;;;;;6241032;22;20073;-85
2022/10/13 01:47:20;;;;;;;26.52;12.68;;;9.80;99.90;;;;;;6240192;22;20015;-85
2022/10/13 01:49:49;;;;;;;24.55;13.55;;;9.80;99.90;;;;;;6240897;22;20032;-84
2022/10/13 01:52:17;;;;;;;21.38;12.13;;;9.80;99.90;;;;;;6238219;23;20066;-84
2022/10/13 01:54:50;;;;;;;23.33;12.55;;;9.70;99.90;;;;;;6241092;22;20012;-84
2022/10/13 01:57:31;;;;;;;21.95;13.05;;;9.80;99.90;;;;;;6240391;22;20070;-85
2022/10/13 02:00:07;;;;;;;25.00;13.38;;;9.80;99.90;;;;;;6241475;22;20102;-84
2022/10/13 02:02:53;;;;;;;24.20;13.32;;;9.80;99.90;;;;;;6240831;22;20012;-85
2022/10/13 02:05:37;;;;;;;21.38;12.57;;;9.80;99.90;;;;;;6240850;23;20391;-85
2022/10/13 02:08:13;;;;;;;;;;;9.80;99.90;;;;;;6241011;22;20025;-84
2022/10/13 02:11:00;;;;;;;23.50;13.35;;;9.80;99.90;;;;;;6241110;22;19969;-84
2022/10/13 02:13:28;;;;;;;27.27;13.65;;;9.80;99.90;;;;;;6239328;23;20016;-84
2022/10/13 02:15:57;;;;;;;27.75;13.80;;;9.80;99.90;;;;;;6242773;23;20016;-84
2022/10/13 02:18:31;;;;;;;23.90;13.20;;;9.80;99.90;;;;;;6242981;22;20337;-84
2022/10/13 02:20:59;;;;;;;25.25;13.75;;;9.80;99.90;;;;;;6241097;23;20019;-85
2022/10/13 02:23:25;;;;;;;27.70;13.35;;;9.70;99.90;;;;;;6240093;23;20406;-85
2022/10/13 02:25:51;;;;;;;21.83;12.63;;;9.70;99.90;;;;;;6242687;22;20329;-84
2022/10/13 02:28:17;;;;;;;21.15;13.00;;;9.80;99.90;;;;;;6241823;23;20016;-84
2022/10/13 02:30:44;;;;;;;26.73;13.52;;;9.80;99.90;;;;;;6240362;23;20438;-84
2022/10/13 02:33:11;;;;;;;28.25;13.82;;;9.70;99.90;;;;;;6240422;23;20012;-84
2022/10/13 02:35:37;;;;;;;22.30;13.52;;;9.70;99.90;;;;;;6242363;22;20777;-84
2022/10/13 02:38:03;;;;;;;23.90;13.32;;;9.80;99.90;;;;;;6241828;22;20502;-84
2022/10/13 02:40:29;;;;;;;21.50;12.52;;;9.80;99.90;;;;;;6242863;23;20083;-85
2022/10/13 02:42:55;;;;;;;26.30;13.73;;;9.80;99.90;;;;;;6242432;23;20008;-85
2022/10/13 02:45:21;;;;;;;22.15;12.38;;;9.70;99.90;;;;;;6242553;22;20012;-85
2022/10/13 02:47:48;;;;;;;24.73;13.88;;;9.70;99.90;;;;;;6242855;22;20442;-85
2022/10/13 02:50:13;;;;;;;24.50;13.27;;;9.70;99.90;;;;;;6240072;23;20016;-84
2022/10/13 02:52:39;;;;;;;24.20;14.10;;;9.70;99.90;;;;;;6241801;23;20012;-84
2022/10/13 02:55:05;;;;;;;25.58;13.32;;;9.70;99.90;;;;;;6242650;22;20444;-84
2022/10/13 02:57:31;;;;;;;23.13;12.70;;;9.70;99.90;;;;;;6242095;22;20031;-85
2022/10/13 02:59:57;;;;;;;25.45;13.25;;;9.70;99.90;;;;;;6241627;23;20020;-85
2022/10/13 03:02:22;;;;;;;24.40;13.45;;;9.90;99.90;;;;;;6242733;23;20047;-85
2022/10/13 03:04:48;;;;;;;22.48;13.32;;;9.70;99.90;;;;;;6239624;23;20040;-85
2022/10/13 03:07:14;;;;;;;26.30;13.70;;;9.60;99.90;;;;;;6242364;23;20087;-85
2022/10/13 03:09:40;;;;;;;23.05;13.95;;;9.70;99.90;;;;;;6241896;23;20465;-85
2022/10/13 03:12:06;;;;;;;22.70;12.90;;;9.80;99.90;;;;;;6242104;23;20008;-85
2022/10/13 03:14:31;;;;;;;20.27;12.95;;;9.80;99.90;;;;;;6241770;23;20012;-85
2022/10/13 03:16:57;;;;;;;24.27;13.32;;;9.80;99.90;;;;;;6240188;23;20035;-84
2022/10/13 03:19:23;;;;;;;25.83;13.57;;;9.80;99.90;;;;;;6241573;23;20354;-84
2022/10/13 03:21:49;;;;;;;24.20;13.95;;;9.80;99.90;;;;;;6241887;22;20445;-84
2022/10/13 03:24:15;;;;;;;25.65;14.80;;;9.80;99.90;;;;;;6242159;22;20020;-85
2022/10/13 03:26:40;;;;;;;24.25;14.13;;;9.70;99.90;;;;;;6241684;23;20087;-85
2022/10/13 03:29:06;;;;;;;22.80;13.48;;;9.80;99.90;;;;;;6241879;23;20089;-84
2022/10/13 03:31:31;;;;;;;21.55;12.63;;;9.90;99.90;;;;;;6241833;23;20012;-84
2022/10/13 03:33:57;;;;;;;26.85;13.05;;;9.80;99.90;;;;;;6241474;23;20020;-84
2022/10/13 03:36:22;;;;;;;25.13;13.02;;;9.80;99.90;;;;;;6240354;23;20020;-85
2022/10/13 03:38:48;;;;;;;24.65;12.93;;;9.80;99.90;;;;;;6239926;23;20019;-85
2022/10/13 03:41:16;;;;;;;28.48;14.80;;;9.80;99.90;;;;;;6240124;23;20068;-84
2022/10/13 03:43:42;;;;;;;24.35;13.73;;;9.80;99.90;;;;;;6239920;23;20100;-85
2022/10/13 03:46:12;;;;;;;25.98;14.00;;;9.80;99.90;;;;;;6240180;23;20016;-84
2022/10/13 03:48:38;;;;;;;29.25;14.25;;;9.80;99.90;;;;;;6238771;23;20103;-84
2022/10/13 03:51:06;;;;;;;24.80;13.88;;;9.80;99.90;;;;;;6240265;23;20040;-85
2022/10/13 03:53:31;;;;;;;24.17;13.52;;;9.80;99.90;;;;;;6239656;23;20054;-84
2022/10/13 03:55:57;;;;;;;23.60;14.38;;;9.80;99.90;;;;;;6241582;22;20392;-85
2022/10/13 03:58:24;;;;;;;27.25;13.50;;;9.80;99.90;;;;;;6240053;23;20016;-85
2022/10/13 04:00:50;;;;;;;30.85;15.55;;;9.90;99.90;;;;;;6240898;22;20008;-85
2022/10/13 04:03:17;;;;;;;25.90;15.13;;;9.90;99.90;;;;;;6241028;22;20012;-85
2022/10/13 04:05:42;;;;;;;29.85;15.05;;;9.90;99.90;;;;;;6239835;23;20017;-85
2022/10/13 04:08:09;;;;;;;25.85;14.65;;;9.90;99.90;;;;;;6239894;23;20438;-85
2022/10/13 04:10:34;;;;;;;24.33;14.10;;;9.90;99.90;;;;;;6241288;22;20509;-85
2022/10/13 04:13:00;;;;;;;25.17;15.68;;;9.90;99.90;;;;;;6240052;23;20059;-85
2022/10/13 04:15:26;;;;;;;22.77;14.43;;;9.90;99.90;;;;;;6241773;23;20012;-85
2022/10/13 04:17:51;;;;;;;28.20;14.73;;;9.90;99.90;;;;;;6240507;23;20016;-85
2022/10/13 04:20:17;;;;;;;26.67;16.13;;;9.90;99.90;;;;;;6241954;22;20020;-85
2022/10/13 04:22:43;;;;;;;28.92;16.33;;;9.90;99.90;;;;;;6240875;22;20008;-85
2022/10/13 04:25:09;;;;;;;25.38;15.35;;;9.90;99.90;;;;;;6239484;23;20072;-85
2022/10/13 04:27:37;;;;;;;27.52;15.85;;;9.90;99.90;;;;;;6239381;23;20008;-85
2022/10/13 04:30:05;;;;;;;25.63;16.00;;;9.90;99.90;;;;;;6241367;22;20021;-85
2022/10/13 04:32:31;;;;;;;29.20;16.30;;;9.90;99.90;;;;;;6240297;22;20445;-85
2022/10/13 04:34:56;;;;;;;27.48;14.77;;;9.90;99.90;;;;;;6241163;22;20038;-85
2022/10/13 04:37:22;;;;;;;25.55;14.80;;;9.90;99.90;;;;;;6239975;23;20016;-85
2022/10/13 04:39:48;;;;;;;31.30;16.42;;;9.90;99.90;;;;;;6239607;23;20020;-85
2022/10/13 04:42:14;;;;;;;26.13;16.55;;;9.90;99.90;;;;;;6238688;23;20016;-85
2022/10/13 04:44:39;;;;;;;27.88;16.05;;;9.90;99.90;;;;;;6239359;23;20107;-85
2022/10/13 04:47:05;;;;;;;29.63;16.08;;;9.90;99.90;;;;;;6240320;23;20012;-85
2022/10/13 04:49:30;;;;;;;29.45;17.00;;;9.90;99.90;;;;;;6240738;23;20008;-85
2022/10/13 04:51:56;;;;;;;28.83;16.92;;;9.90;99.90;;;;;;6241363;23;20032;-85
2022/10/13 04:54:22;;;;;;;29.50;16.38;;;9.90;99.90;;;;;;6239399;23;20059;-85
2022/10/13 04:56:47;;;;;;;25.13;14.68;;;9.90;99.90;;;;;;6239118;23;20472;-85
2022/10/13 04:59:13;;;;;;;29.80;16.63;;;9.90;99.90;;;;;;6239326;23;20029;-85
2022/10/13 05:01:38;;;;;;;26.40;15.57;;;9.90;99.90;;;;;;6241072;23;20012;-85
2022/10/13 05:04:05;;;;;;;30.13;17.33;;;9.90;99.90;;;;;;6241192;23;20515;-86
2022/10/13 05:06:33;;;;;;;27.63;18.02;;;9.90;99.90;;;;;;6241388;22;20014;-85
2022/10/13 05:08:59;;;;;;;30.75;18.58;;;9.90;99.90;;;;;;6241539;22;20005;-85
2022/10/13 05:11:27;;;;;;;31.35;18.92;;;9.90;99.90;;;;;;6214052;23;20019;-86
2022/10/13 05:13:53;;;;;;;32.05;18.50;;;9.90;99.90;;;;;;6239630;23;20471;-85
2022/10/13 05:16:20;;;;;;;31.30;18.40;;;9.90;99.90;;;;;;6239282;23;20372;-85
2022/10/13 05:18:46;;;;;;;34.75;20.17;;;9.90;99.90;;;;;;6241783;22;20043;-85
2022/10/13 05:21:14;;;;;;;30.02;18.48;;;9.90;99.90;;;;;;6241786;22;20437;-85
2022/10/13 05:23:40;;;;;;;28.45;17.95;;;10.00;99.90;;;;;;6242877;22;20011;-85
2022/10/13 05:26:13;;;;;;;31.30;19.05;;;9.90;99.90;;;;;;6243210;22;20023;-86
2022/10/13 05:28:39;;;;;;;31.80;18.05;;;9.90;99.90;;;;;;6242810;22;20016;-85
2022/10/13 05:31:14;;;;;;;32.58;20.20;;;9.90;99.90;;;;;;6242813;22;20054;-85
2022/10/13 05:33:39;;;;;;;35.10;18.40;;;9.90;99.90;;;;;;6241372;23;20315;-85
2022/10/13 05:36:12;;;;;;;42.45;21.88;;;9.90;99.90;;;;;;6243043;23;20337;-85
2022/10/13 05:38:38;;;;;;;37.30;20.42;;;9.90;99.90;;;;;;6242744;23;20024;-85
2022/10/13 05:41:10;;;;;;;34.58;20.42;;;9.90;99.90;;;;;;6242359;23;20032;-85
2022/10/13 05:43:38;;;;;;;46.53;22.02;;;10.00;99.90;;;;;;6243682;22;20036;-85
2022/10/13 05:46:04;;;;;;;41.78;22.75;;;9.90;99.90;;;;;;6242445;22;20012;-86
2022/10/13 05:48:31;;;;;;;44.05;22.67;;;9.90;99.90;;;;;;6242278;23;20012;-85
2022/10/13 05:51:00;;;;;;;41.95;23.48;;;9.90;99.90;;;;;;6244102;23;20042;-85
2022/10/13 05:53:29;;;;;;;44.45;21.40;;;10.00;99.90;;;;;;6244053;22;20043;-85
2022/10/13 05:55:57;;;;;;;31.65;20.02;;;9.90;99.90;;;;;;6244700;22;20012;-85
2022/10/13 05:58:23;;;;;;;35.50;22.73;;;9.90;99.90;;;;;;6241286;23;20444;-85
2022/10/13 06:00:50;;;;;;;33.88;22.60;;;10.00;99.90;;;;;;6240906;22;20126;-85
2022/10/13 06:03:20;;;;;;;37.88;22.30;;;10.00;99.90;;;;;;6242888;22;20341;-86
2022/10/13 06:05:49;;;;;;;34.20;21.15;;;10.00;99.90;;;;;;6242502;22;20097;-85
2022/10/13 06:08:15;;;;;;;35.85;22.27;;;10.00;99.90;;;;;;6242555;23;20016;-85
2022/10/13 06:10:41;;;;;;;40.70;22.98;;;10.00;99.90;;;;;;6240922;23;20009;-83
2022/10/13 06:13:07;;;;;;;39.95;23.13;;;10.00;99.90;;;;;;6242634;22;20207;-85
2022/10/13 06:15:33;;;;;;;35.53;21.13;;;10.00;99.90;;;;;;6240617;23;20012;-85
2022/10/13 06:17:59;;;;;;;37.80;22.30;;;10.00;99.90;;;;;;6242885;23;20031;-85
2022/10/13 06:20:26;;;;;;;37.75;22.73;;;10.00;99.90;;;;;;6242715;23;20130;-86
2022/10/13 06:22:53;;;;;;;44.42;25.63;;;10.00;99.90;;;;;;6240768;23;20019;-83
2022/10/13 06:25:19;;;;;;;39.63;24.02;;;10.10;99.90;;;;;;6242770;22;20314;-85
2022/10/13 06:27:45;;;;;;;39.17;22.30;;;10.10;99.90;;;;;;6239694;23;20088;-85
2022/10/13 06:30:10;;;;;;;40.42;23.75;;;10.10;99.90;;;;;;6240068;23;20433;-86
2022/10/13 06:32:36;;;;;;;40.95;24.58;;;10.20;99.90;;;;;;6240214;22;20091;-86
2022/10/13 06:35:02;;;;;;;43.28;24.20;;;10.20;99.90;;;;;;6240611;23;20012;-87
2022/10/13 06:37:28;;;;;;;34.13;22.60;;;10.20;99.90;;;;;;6240235;23;20016;-86
2022/10/13 06:39:53;;;;;;;38.42;22.25;;;10.20;99.90;;;;;;6240242;23;20051;-87
2022/10/13 06:42:19;;;;;;;37.80;22.95;;;10.20;99.90;;;;;;6240631;23;20612;-89
2022/10/13 06:44:44;;;;;;;41.85;23.67;;;10.30;99.90;;;;;;6240201;23;20020;-89
2022/10/13 06:47:10;;;;;;;40.85;23.77;;;10.30;99.90;;;;;;6240223;23;20039;-90
2022/10/13 06:49:36;;;;;;;38.25;24.05;;;10.20;99.90;;;;;;6239989;22;20078;-88
2022/10/13 06:52:02;;;;;;;40.85;24.48;;;10.30;99.90;;;;;;6241861;23;20010;-88
2022/10/13 06:54:27;;;;;;;37.25;25.35;;;10.30;99.90;;;;;;6241893;22;20028;-89
2022/10/13 06:56:53;;;;;;;40.72;25.58;;;10.40;99.90;;;;;;6241546;22;20020;-89
2022/10/13 06:59:19;;;;;;;41.20;26.25;;;10.40;99.90;;;;;;6241287;23;20017;-91
2022/10/13 07:01:46;;;;;;;37.92;22.15;;;10.50;99.90;;;;;;6240339;23;20016;-91
2022/10/13 07:04:12;;;;;;;34.53;21.63;;;10.50;99.90;;;;;;6242933;22;20318;-91
2022/10/13 07:06:37;;;;;;;33.25;21.67;;;10.50;99.90;;;;;;6240887;23;20016;-90
2022/10/13 07:09:04;;;;;;;37.60;22.23;;;10.50;99.90;;;;;;6240831;23;20023;-90
2022/10/13 07:11:30;;;;;;;38.08;22.67;;;10.60;99.90;;;;;;6239936;23;20016;-90
2022/10/13 07:13:56;;;;;;;31.65;21.00;;;10.60;99.90;;;;;;6242492;23;20008;-90
2022/10/13 07:16:21;;;;;;;36.92;21.80;;;10.60;99.90;;;;;;6240524;23;20008;-90
2022/10/13 07:18:47;;;;;;;35.80;22.05;;;10.60;99.90;;;;;;6240463;23;20190;-91
2022/10/13 07:21:13;;;;;;;36.40;20.80;;;10.60;99.90;;;;;;6242455;23;20442;-91
2022/10/13 07:23:39;;;;;;;36.75;21.88;;;10.60;99.90;;;;;;6242237;23;20082;-91
2022/10/13 07:26:10;;;;;;;34.22;21.52;;;10.70;99.90;;;;;;6240529;23;20016;-90
2022/10/13 07:28:36;;;;;;;42.45;22.33;;;10.70;99.90;;;;;;6238033;23;20457;-91
2022/10/13 07:31:09;;;;;;;37.17;22.63;;;10.70;99.90;;;;;;6238544;23;20050;-90
2022/10/13 07:33:35;;;;;;;36.13;22.45;;;10.70;99.90;;;;;;6240078;22;20004;-91
2022/10/13 07:36:01;;;;;;;30.98;21.02;;;10.70;99.90;;;;;;6238512;23;20008;-91
2022/10/13 07:38:26;;;;;;;36.05;20.50;;;10.80;99.90;;;;;;6240550;23;20470;-92
2022/10/13 07:40:52;;;;;;;37.50;21.73;;;10.80;99.90;;;;;;6238132;23;20062;-86
2022/10/13 07:43:17;;;;;;;33.22;20.13;;;10.80;99.90;;;;;;6240885;23;20066;-86
2022/10/13 07:45:43;;;;;;;29.67;19.85;;;10.80;99.90;;;;;;6241516;23;20016;-86
2022/10/13 07:48:09;;;;;;;31.98;20.10;;;10.90;99.90;;;;;;6240893;22;20032;-86
2022/10/13 07:50:35;;;;;;;39.13;23.42;;;11.00;99.90;;;;;;6238868;23;20023;-85
2022/10/13 07:53:01;;;;;;;37.63;21.52;;;11.10;99.90;;;;;;6239292;23;20091;-86
2022/10/13 07:55:26;;;;;;;34.95;21.25;;;11.10;99.90;;;;;;6212433;22;20056;-86
2022/10/13 07:57:52;;;;;;;34.33;21.50;;;11.20;99.90;;;;;;6240700;23;20016;-86
2022/10/13 08:00:18;;;;;;;37.38;21.92;;;11.20;99.90;;;;;;6238780;23;20020;-86
2022/10/13 08:02:43;;;;;;;31.23;20.77;;;11.20;99.90;;;;;;6240712;23;20329;-86
2022/10/13 08:05:09;;;;;;;34.17;21.35;;;11.30;99.90;;;;;;6238899;23;20087;-86
2022/10/13 08:07:36;;;;;;;34.58;19.45;;;11.30;99.90;;;;;;6240570;23;20505;-86
2022/10/13 08:10:03;;;;;;;28.98;20.05;;;11.70;99.90;;;;;;6212665;23;20087;-86
2022/10/13 08:12:28;;;;;;;35.78;19.92;;;11.50;99.90;;;;;;6240954;23;20018;-89
2022/10/13 08:14:54;;;;;;;34.30;20.52;;;11.60;99.90;;;;;;6240199;23;20004;-92
2022/10/13 08:17:19;;;;;;;34.33;20.50;;;11.50;99.90;;;;;;6240977;23;20016;-91
2022/10/13 08:19:45;;;;;;;31.45;19.80;;;11.60;99.90;;;;;;6241435;23;20020;-90
2022/10/13 08:22:11;;;;;;;34.40;19.75;;;11.60;99.90;;;;;;6238554;23;20410;-88
2022/10/13 08:24:36;;;;;;;36.22;21.90;;;11.70;99.90;;;;;;6238294;23;20012;-87
2022/10/13 08:27:02;;;;;;;34.67;21.10;;;11.70;99.90;;;;;;6238335;23;20031;-84
2022/10/13 08:29:28;;;;;;;35.45;21.23;;;11.80;99.90;;;;;;6240731;22;20018;-88
2022/10/13 08:31:54;;;;;;;33.30;20.42;;;11.80;99.90;;;;;;6240636;23;20559;-88
2022/10/13 08:34:24;;;;;;;32.42;20.58;;;11.80;99.90;;;;;;6241223;22;20012;-87
2022/10/13 08:36:52;;;;;;;30.35;19.48;;;11.90;99.90;;;;;;6240906;22;20012;-87
2022/10/13 08:39:17;;;;;;;32.78;21.33;;;11.90;99.90;;;;;;6239656;22;20449;-87
2022/10/13 08:41:43;;;;;;;33.03;20.67;;;12.00;99.90;;;;;;6241048;23;20031;-88
2022/10/13 08:44:21;;;;;;;37.38;20.23;;;12.00;99.90;;;;;;6238147;23;20456;-87
2022/10/13 08:46:58;;;;;;;33.15;19.75;;;12.00;99.90;;;;;;6240700;22;20058;-87
2022/10/13 08:49:24;;;;;;;33.33;21.27;;;12.00;99.90;;;;;;6238919;23;20012;-87
2022/10/13 08:51:50;;;;;;;33.97;20.52;;;12.10;99.90;;;;;;6240888;23;20012;-87
2022/10/13 08:54:24;;;;;;;31.52;21.45;;;12.10;99.90;;;;;;6239668;23;20012;-87
2022/10/13 08:56:51;;;;;;;36.80;22.80;;;12.00;99.90;;;;;;6240607;22;20016;-87
2022/10/13 08:59:18;;;;;;;37.78;22.67;;;12.10;99.90;;;;;;6240644;22;20023;-86
2022/10/13 09:01:50;;;;;;;31.08;21.33;;;12.30;99.90;;;;;;6240998;22;20012;-87
2022/10/13 09:04:32;;;;;;;31.92;20.52;;;12.20;99.90;;;;;;6238659;23;20020;-87
2022/10/13 09:07:08;;;;;;;39.35;21.00;;;12.20;99.90;;;;;;6240344;22;20180;-87
2022/10/13 09:09:35;;;;;;;36.03;21.88;;;12.30;99.90;;;;;;6237573;23;20051;-87
2022/10/13 09:12:01;;;;;;;40.25;23.83;;;12.30;99.90;;;;;;6240210;22;20465;-87
2022/10/13 09:14:32;;;;;;;39.63;23.27;;;12.30;99.90;;;;;;6240400;22;20004;-87
2022/10/13 09:17:25;;;;;;;30.65;22.25;;;12.30;99.90;;;;;;6240223;22;20031;-87
2022/10/13 09:19:57;;;;;;;36.00;23.20;;;12.40;99.90;;;;;;6240955;22;20045;-87
2022/10/13 09:22:27;;;;;;;36.42;21.73;;;12.40;99.90;;;;;;6240698;23;20023;-87
2022/10/13 09:25:20;;;;;;;35.97;22.83;;;12.40;99.90;;;;;;6242649;22;20095;-87
2022/10/13 09:27:53;;;;;;;35.85;23.55;;;12.50;99.90;;;;;;6229126;23;20027;-90
2022/10/13 09:30:33;;;;;;;38.25;24.42;;;12.60;99.90;;;;;;6242561;22;20062;-89
2022/10/13 09:33:07;;;;;;;37.42;23.33;;;12.60;99.90;;;;;;6242410;23;20042;-88
2022/10/13 09:35:34;;;;;;;40.22;24.52;;;12.70;99.90;;;;;;6242281;22;20040;-90
2022/10/13 09:38:02;;;;;;;38.80;24.42;;;12.70;99.90;;;;;;6239793;23;20008;-90
2022/10/13 09:40:30;;;;;;;34.78;23.70;;;12.80;99.90;;;;;;6241100;23;20016;-90
2022/10/13 09:42:57;;;;;;;41.92;25.00;;;12.90;99.90;;;;;;6241535;22;20032;-90
2022/10/13 09:45:24;;;;;;;40.65;23.17;;;12.90;99.90;;;;;;6242366;22;20043;-89
2022/10/13 09:48:05;;;;;;;37.60;24.73;;;12.80;99.90;;;;;;6240846;23;20445;-88
2022/10/13 09:50:33;;;;;;;35.17;24.52;;;12.90;99.90;;;;;;6242767;22;20053;-88
2022/10/13 09:53:13;;;;;;;38.47;23.75;;;13.00;99.90;;;;;;6238965;23;20016;-88
2022/10/13 09:55:39;;;;;;;38.28;23.42;;;13.00;99.90;;;;;;6240022;23;20019;-86
2022/10/13 09:58:19;;;;;;;40.80;25.38;;;13.10;99.90;;;;;;6240169;23;20016;-91
2022/10/13 10:00:47;;;;;;;36.72;23.45;;;13.20;99.90;;;;;;6242614;22;20016;-89
2022/10/13 10:03:25;;;;;;;34.72;23.08;;;13.20;99.90;;;;;;6241579;22;20100;-90
2022/10/13 10:05:56;;;;;;;36.28;22.88;;;13.20;99.90;;;;;;6238980;23;20043;-90
2022/10/13 10:08:33;;;;;;;37.55;24.52;;;13.10;99.90;;;;;;6241900;22;20020;-90
2022/10/13 10:11:08;;;;;;;30.02;21.38;;;13.10;99.90;;;;;;6241720;23;20060;-91
2022/10/13 10:13:33;;;;;;;32.10;22.80;;;13.00;99.90;;;;;;6215184;23;20377;-91
2022/10/13 10:16:02;;;;;;;33.13;21.83;;;13.10;99.90;;;;;;6239825;23;20016;-90
2022/10/13 10:18:51;;;;;;;32.35;21.80;;;13.10;99.90;;;;;;6239383;23;20101;-92
2022/10/13 10:21:22;;;;;;;31.67;21.63;;;13.00;99.90;;;;;;6241336;22;20016;-89
2022/10/13 10:23:57;;;;;;;27.83;19.60;;;13.10;99.90;;;;;;6239344;23;20020;-90
2022/10/13 10:26:35;;;;;;;;;;;13.10;99.90;;;;;;6240479;23;20372;-90
2022/10/13 10:29:13;;;;;;;30.80;19.80;;;13.00;99.90;;;;;;6241878;22;19921;-89
2022/10/13 10:32:09;;;;;;;28.73;19.58;;;13.10;99.90;;;;;;6241667;22;20430;-90
2022/10/13 10:34:47;;;;;;;29.65;21.02;;;13.00;99.90;;;;;;6239825;23;20075;-88
2022/10/13 10:37:34;;;;;;;31.42;21.50;;;13.10;99.90;;;;;;6239628;23;20073;-90
2022/10/13 10:40:14;;;;;;;32.70;21.50;;;13.10;99.90;;;;;;6241179;23;20337;-90
2022/10/13 10:43:09;;;;;;;31.77;22.40;;;13.10;99.90;;;;;;6241021;23;20023;-91
2022/10/13 10:45:38;;;;;;;34.55;23.50;;;13.10;99.90;;;;;;6241579;23;20020;-90
2022/10/13 10:48:13;;;;;;;37.90;22.92;;;13.10;99.90;;;;;;6240746;23;20030;-91
2022/10/13 10:50:39;;;;;;;31.17;22.23;;;13.20;99.90;;;;;;6242320;22;20077;-90
2022/10/13 10:53:32;;;;;;;28.58;21.83;;;13.20;99.90;;;;;;6241791;22;20016;-89
2022/10/13 10:56:08;;;;;;;33.28;23.27;;;13.20;99.90;;;;;;6239300;23;20016;-91
2022/10/13 10:58:56;;;;;;;34.55;24.27;;;13.20;99.90;;;;;;6241872;22;20483;-87
2022/10/13 11:01:32;;;;;;;31.83;24.38;;;13.20;99.90;;;;;;6240204;23;20077;-91
2022/10/13 11:04:24;;;;;;;35.45;24.20;;;13.30;99.90;;;;;;6238254;23;20016;-89
2022/10/13 11:06:50;;;;;;;29.75;22.35;;;13.20;99.90;;;;;;6240184;22;20020;-89
2022/10/13 11:09:41;;;;;;;32.97;23.02;;;13.30;99.90;;;;;;6239093;23;20013;-90
2022/10/13 11:12:45;;;;;;;33.35;22.77;;;13.20;99.90;;;;;;6238986;23;20012;-90
2022/10/13 11:15:40;;;;;;;33.38;22.42;;;13.30;99.90;;;;;;6193999;22;20015;-88
2022/10/13 11:18:43;;;;;;;33.72;23.92;;;13.30;99.90;;;;;;6240334;22;20039;-91
2022/10/13 11:21:08;;;;;;;35.25;24.13;;;13.40;99.90;;;;;;6238975;23;20016;-89
2022/10/13 11:23:44;;;;;;;42.05;25.17;;;13.40;99.90;;;;;;6241515;22;20337;-91
2022/10/13 11:26:42;;;;;;;34.67;23.50;;;13.40;99.90;;;;;;6239183;23;20020;-91
2022/10/13 11:29:17;;;;;;;35.60;25.00;;;13.60;99.90;;;;;;6175156;22;20024;-91
2022/10/13 11:31:49;;;;;;;35.50;24.00;;;13.40;99.90;;;;;;6240758;22;20063;-91
2022/10/13 11:34:27;;;;;;;35.17;23.67;;;13.40;99.90;;;;;;6238975;23;20473;-91
2022/10/13 11:36:58;;;;;;;32.42;22.88;;;13.40;99.90;;;;;;6239456;23;20391;-91
2022/10/13 11:39:27;;;;;;;34.50;23.40;;;13.40;99.90;;;;;;6241628;22;20311;-91
2022/10/13 11:42:08;;;;;;;36.55;23.10;;;13.40;99.90;;;;;;6241061;23;20022;-91
2022/10/13 11:44:46;;;;;;;33.97;25.20;;;13.40;99.90;;;;;;6240325;22;20019;-90
2022/10/13 11:47:56;;;;;;;36.88;24.88;;;13.40;99.90;;;;;;6238592;23;20016;-90
2022/10/13 11:50:29;;;;;;;34.05;23.13;;;13.50;99.90;;;;;;6240693;22;20012;-90
2022/10/13 11:53:17;;;;;;;38.33;24.23;;;13.50;99.90;;;;;;6240191;22;20520;-92
2022/10/13 11:55:50;;;;;;;38.88;26.48;;;13.60;99.90;;;;;;6237901;23;20022;-89
2022/10/13 11:58:21;;;;;;;37.70;24.88;;;13.70;99.90;;;;;;6237981;23;20441;-87
2022/10/13 12:00:59;;;;;;;37.08;24.55;;;13.80;99.90;;;;;;6238075;23;20242;-87
2022/10/13 12:03:30;;;;;;;36.25;25.63;;;13.80;99.90;;;;;;6240264;22;20012;-87
2022/10/13 12:06:08;;;;;;;34.40;23.55;;;13.90;99.90;;;;;;6237797;23;20035;-87
2022/10/13 12:08:35;;;;;;;36.40;23.75;;;13.90;99.90;;;;;;6238004;23;20501;-87
2022/10/13 12:11:04;;;;;;;38.13;24.92;;;13.90;99.90;;;;;;6237976;23;20012;-87
2022/10/13 12:13:32;;;;;;;39.63;25.48;;;13.90;99.90;;;;;;6238755;23;20020;-88
2022/10/13 12:15:59;;;;;;;37.47;25.83;;;14.00;99.90;;;;;;6239388;22;20039;-88
2022/10/13 12:18:34;;;;;;;35.42;25.20;;;14.20;99.90;;;;;;6238280;23;20016;-88
2022/10/13 12:21:13;;;;;;;35.78;22.80;;;14.10;99.90;;;;;;6238964;22;20434;-88
2022/10/13 12:23:39;;;;;;;39.40;24.05;;;14.10;99.90;;;;;;6240432;22;20341;-86
2022/10/13 12:26:06;;;;;;;33.22;23.15;;;14.20;99.90;;;;;;6239420;22;20016;-84
2022/10/13 12:28:49;;;;;;;34.58;24.50;;;14.20;99.90;;;;;;6239640;22;20744;-84
2022/10/13 12:31:21;;;;;;;36.07;24.37;;;14.10;99.90;;;;;;6239425;22;20066;-84
2022/10/13 12:34:18;;;;;;;34.80;22.25;;;14.10;99.90;;;;;;6238243;23;20246;-84
2022/10/13 12:36:51;;;;;;;34.22;23.67;;;14.10;99.90;;;;;;6225605;23;20019;-84
2022/10/13 12:39:17;;;;;;;34.45;24.25;;;14.10;99.90;;;;;;6239541;22;20030;-83
2022/10/13 12:41:46;;;;;;;36.55;23.52;;;14.00;99.90;;;;;;6238779;22;20430;-85
2022/10/13 12:44:24;;;;;;;36.05;23.98;;;14.30;99.90;;;;;;6239679;22;20027;-85
2022/10/13 12:46:52;;;;;;;34.20;23.48;;;14.00;99.90;;;;;;6239511;22;20035;-85
2022/10/13 12:49:24;;;;;;;31.42;22.90;;;14.00;99.90;;;;;;6239428;22;20039;-84